Time;durP1;ratioP1;P1;durP2;ratioP2;P2;SDS_P1;SDS_P2;PMS_P1;PMS_P2;Temp;Humidity;BMP_temperature;BMP_pressure;BME280_temperature;BME280_humidity;BME280_pressure;Samples;Min_cycle;Max_cycle;Signal;HPM_P1;HPM_P2
2023/09/25 03:02:43;;;;;;;3.53;1.95;;;17.70;72.20;;;;;;5055566;28;20698;-78
2023/09/25 03:05:09;;;;;;;2.83;1.92;;;17.80;72.20;;;;;;5048063;28;20029;-79
2023/09/25 03:07:35;;;;;;;2.67;1.80;;;17.70;72.20;;;;;;5049000;28;20066;-78
2023/09/25 03:10:01;;;;;;;5.35;2.05;;;17.70;72.20;;;;;;5042897;28;20040;-78
2023/09/25 03:12:28;;;;;;;3.90;1.83;;;17.70;72.20;;;;;;5042868;28;20397;-78
2023/09/25 03:14:53;;;;;;;4.70;2.10;;;17.70;72.20;;;;;;5047677;28;20071;-77
2023/09/25 03:17:19;;;;;;;5.80;2.35;;;17.70;72.20;;;;;;5048720;28;20477;-79
2023/09/25 03:19:45;;;;;;;16.50;2.30;;;17.70;72.20;;;;;;5052886;28;20020;-78
2023/09/25 03:22:10;;;;;;;4.70;2.65;;;17.70;72.20;;;;;;5046043;28;20067;-78
2023/09/25 03:24:36;;;;;;;6.38;2.08;;;17.70;72.20;;;;;;5043687;28;20108;-78
2023/09/25 03:27:01;;;;;;;4.28;2.42;;;17.70;72.20;;;;;;5062027;28;20039;-78
2023/09/25 03:29:27;;;;;;;7.18;2.50;;;17.70;72.20;;;;;;5066468;28;20523;-78
2023/09/25 03:31:53;;;;;;;3.25;1.88;;;17.70;72.20;;;;;;5048172;28;20029;-79
2023/09/25 03:34:20;;;;;;;4.50;2.38;;;17.70;72.90;;;;;;5043825;28;20414;-79
2023/09/25 03:36:45;;;;;;;5.45;2.10;;;17.80;72.30;;;;;;5040914;28;20027;-78
2023/09/25 03:39:11;;;;;;;4.30;2.33;;;17.70;72.20;;;;;;5044482;28;20029;-78
2023/09/25 03:41:36;;;;;;;3.97;2.08;;;17.70;72.20;;;;;;5049965;28;20017;-79
2023/09/25 03:44:02;;;;;;;3.55;2.25;;;17.70;72.20;;;;;;5040930;28;20032;-78
2023/09/25 03:46:28;;;;;;;2.47;1.88;;;17.70;72.20;;;;;;5051012;28;20051;-78
2023/09/25 03:48:53;;;;;;;4.78;2.03;;;17.70;72.20;;;;;;5041773;28;20461;-79
2023/09/25 03:51:19;;;;;;;4.00;2.00;;;17.70;72.20;;;;;;5048845;28;20056;-80
2023/09/25 03:53:45;;;;;;;3.92;2.42;;;17.70;72.20;;;;;;5049198;28;20016;-78
2023/09/25 03:56:10;;;;;;;5.43;1.90;;;17.70;72.20;;;;;;5048887;28;20040;-78
2023/09/25 03:58:36;;;;;;;4.45;1.90;;;17.70;72.20;;;;;;5063622;28;20055;-78
2023/09/25 04:01:02;;;;;;;7.00;2.50;;;17.70;72.20;;;;;;5059491;28;20029;-79
2023/09/25 04:03:27;;;;;;;4.68;2.13;;;17.70;72.20;;;;;;5062413;28;20089;-79
2023/09/25 04:05:53;;;;;;;4.80;2.33;;;17.70;72.20;;;;;;5064127;28;20087;-78
2023/09/25 04:08:18;;;;;;;3.38;2.38;;;17.70;72.20;;;;;;5044922;28;20029;-79
2023/09/25 04:10:44;;;;;;;6.93;2.30;;;17.70;72.20;;;;;;5050779;28;20096;-78
2023/09/25 04:13:11;;;;;;;5.00;1.98;;;17.70;72.20;;;;;;5060953;28;20024;-78
2023/09/25 04:15:37;;;;;;;4.22;2.05;;;17.70;72.20;;;;;;5041009;28;20021;-78
2023/09/25 04:18:06;;;;;;;5.07;2.58;;;17.70;72.20;;;;;;5048200;28;20027;-78
2023/09/25 04:20:32;;;;;;;12.95;2.63;;;17.70;72.20;;;;;;5042957;28;20581;-78
2023/09/25 04:22:58;;;;;;;10.60;2.97;;;17.70;72.20;;;;;;5047700;28;20025;-78
2023/09/25 04:25:24;;;;;;;6.25;2.58;;;17.60;72.10;;;;;;5040488;28;20028;-78
2023/09/25 04:27:53;;;;;;;3.88;2.20;;;17.70;72.20;;;;;;5046164;28;20462;-78
2023/09/25 04:30:20;;;;;;;8.40;2.55;;;17.60;72.10;;;;;;5056612;28;20099;-79
2023/09/25 04:32:46;;;;;;;3.97;2.33;;;17.70;72.20;;;;;;5051109;28;20020;-79
2023/09/25 04:35:13;;;;;;;4.95;2.70;;;17.70;72.20;;;;;;5043055;28;20021;-78
2023/09/25 04:37:39;;;;;;;4.30;2.70;;;17.60;72.10;;;;;;5042959;28;20025;-78
2023/09/25 04:40:30;;;;;;;7.40;2.55;;;17.70;72.20;;;;;;5045117;28;20024;-78
2023/09/25 04:42:56;;;;;;;4.95;2.35;;;17.70;72.20;;;;;;5056917;28;20029;-78
2023/09/25 04:45:23;;;;;;;6.75;2.65;;;17.60;72.10;;;;;;5047140;28;20061;-79
2023/09/25 04:47:53;;;;;;;4.75;2.28;;;17.60;72.20;;;;;;5041280;28;20025;-79
2023/09/25 04:50:19;;;;;;;4.82;2.40;;;17.60;72.10;;;;;;5042372;28;20465;-78
2023/09/25 04:52:45;;;;;;;7.00;2.25;;;17.70;72.20;;;;;;5047191;28;20028;-79
2023/09/25 04:55:12;;;;;;;5.78;2.28;;;17.60;72.10;;;;;;5061574;28;20028;-78
2023/09/25 04:57:44;;;;;;;4.97;2.25;;;17.70;72.30;;;;;;5043947;28;20017;-78
2023/09/25 05:02:45;;;;;;;8.38;3.05;;;17.60;72.20;;;;;;5059621;28;20485;-78
2023/09/25 05:05:11;;;;;;;5.18;2.63;;;17.60;72.20;;;;;;5047266;28;20040;-78
2023/09/25 05:07:37;;;;;;;4.32;2.40;;;17.60;72.20;;;;;;5041764;28;20020;-79
2023/09/25 05:10:04;;;;;;;3.92;1.90;;;17.60;72.20;;;;;;5060611;28;20036;-79
2023/09/25 05:12:30;;;;;;;5.93;2.50;;;17.60;72.20;;;;;;5043083;28;20052;-79
2023/09/25 05:14:56;;;;;;;5.90;2.88;;;17.60;72.20;;;;;;5039450;28;20470;-78
2023/09/25 05:17:21;;;;;;;5.03;2.65;;;17.60;72.20;;;;;;5057236;28;20035;-78
2023/09/25 05:19:47;;;;;;;3.65;2.22;;;17.60;72.30;;;;;;5046219;28;20074;-78
2023/09/25 05:22:13;;;;;;;9.55;2.55;;;17.60;72.20;;;;;;5042242;28;20447;-79
2023/09/25 05:24:38;;;;;;;4.53;2.63;;;17.60;72.30;;;;;;5062423;28;20036;-79
2023/09/25 05:27:05;;;;;;;5.82;2.70;;;17.60;73.00;;;;;;5054164;28;20388;-78
2023/09/25 05:29:30;;;;;;;5.13;2.55;;;17.60;72.30;;;;;;5065784;28;20092;-77
2023/09/25 05:31:56;;;;;;;3.90;2.35;;;17.60;72.30;;;;;;5065495;28;20104;-78
2023/09/25 05:34:22;;;;;;;3.35;2.08;;;17.60;72.30;;;;;;5043429;28;20462;-78
2023/09/25 05:36:48;;;;;;;8.32;2.28;;;17.60;72.30;;;;;;5065465;28;20087;-78
2023/09/25 05:39:13;;;;;;;7.30;2.47;;;17.60;72.30;;;;;;5044843;28;20082;-78
2023/09/25 05:41:39;;;;;;;3.92;2.13;;;17.60;72.30;;;;;;5042734;28;20051;-78
2023/09/25 05:44:05;;;;;;;4.75;2.63;;;17.60;72.30;;;;;;5049706;28;20025;-78
2023/09/25 05:46:30;;;;;;;6.28;2.53;;;17.60;72.30;;;;;;5044269;28;20154;-79
2023/09/25 05:48:58;;;;;;;5.35;2.63;;;17.60;72.30;;;;;;5049814;28;20458;-78
2023/09/25 05:51:23;;;;;;;6.00;2.53;;;17.60;72.30;;;;;;5066047;28;20027;-78
2023/09/25 05:53:49;;;;;;;3.65;2.20;;;17.60;72.30;;;;;;5061780;28;20761;-79
2023/09/25 05:56:15;;;;;;;5.18;2.20;;;17.60;72.30;;;;;;5043168;28;20021;-78
2023/09/25 05:58:41;;;;;;;3.78;2.53;;;17.60;72.30;;;;;;5049732;28;20040;-78
2023/09/25 06:01:07;;;;;;;6.75;2.50;;;17.60;72.30;;;;;;5048140;28;20052;-78
2023/09/25 06:03:33;;;;;;;2.40;1.98;;;17.60;72.30;;;;;;5043734;28;20316;-78
2023/09/25 06:05:59;;;;;;;3.85;2.47;;;17.60;72.30;;;;;;5048793;28;20079;-85
2023/09/25 06:08:24;;;;;;;3.08;2.03;;;17.60;70.70;;;;;;5049307;28;20560;-85
2023/09/25 06:11:01;;;;;;;7.53;2.92;;;17.40;68.10;;;;;;5043636;28;20705;-85
2023/09/25 06:13:26;;;;;;;4.80;2.80;;;17.30;67.50;;;;;;5052608;28;20389;-84
2023/09/25 06:15:52;;;;;;;4.30;2.22;;;17.20;67.90;;;;;;5040424;28;20036;-84
2023/09/25 06:18:17;;;;;;;5.32;2.47;;;17.20;67.90;;;;;;5043485;28;20043;-84
2023/09/25 06:20:43;;;;;;;5.05;2.75;;;17.10;67.90;;;;;;5064457;28;20642;-85
2023/09/25 06:23:09;;;;;;;4.72;2.47;;;17.10;68.10;;;;;;5048406;28;20107;-84
2023/09/25 06:25:35;;;;;;;5.68;2.65;;;17.10;68.20;;;;;;5058272;28;20159;-85
2023/09/25 06:28:02;;;;;;;5.70;2.72;;;17.10;68.30;;;;;;5067131;28;20474;-85
2023/09/25 06:30:30;;;;;;;7.78;2.65;;;17.00;68.60;;;;;;5045253;28;20017;-84
2023/09/25 06:32:55;;;;;;;4.78;2.50;;;17.00;69.00;;;;;;5058941;28;20013;-85
2023/09/25 06:35:21;;;;;;;5.07;3.05;;;17.00;69.10;;;;;;5045905;28;20025;-84
2023/09/25 06:37:48;;;;;;;4.43;2.88;;;17.00;69.30;;;;;;5043561;28;20028;-84
2023/09/25 06:40:15;;;;;;;3.78;1.98;;;17.00;69.50;;;;;;5059184;28;20024;-84
2023/09/25 06:42:41;;;;;;;8.65;2.35;;;17.00;68.80;;;;;;5063687;28;20023;-85
2023/09/25 06:45:08;;;;;;;9.55;2.42;;;16.90;68.10;;;;;;5047266;28;20028;-83
2023/09/25 06:47:34;;;;;;;5.88;2.72;;;16.80;67.80;;;;;;5041308;28;20025;-84
2023/09/25 06:49:59;;;;;;;5.10;2.67;;;16.80;67.90;;;;;;5049310;28;20021;-83
2023/09/25 06:52:25;;;;;;;10.40;2.80;;;16.80;68.00;;;;;;5062378;28;20382;-84
2023/09/25 06:54:51;;;;;;;9.07;2.97;;;16.80;68.40;;;;;;5064706;28;20017;-83
2023/09/25 06:57:17;;;;;;;11.60;3.00;;;16.80;68.90;;;;;;5043034;28;20052;-84
2023/09/25 06:59:42;;;;;;;7.50;3.38;;;16.80;69.00;;;;;;5046797;28;20028;-85
2023/09/25 07:02:08;;;;;;;17.40;3.15;;;16.80;69.20;;;;;;5059856;28;20020;-84
2023/09/25 07:04:33;;;;;;;7.32;2.80;;;16.80;70.30;;;;;;5059923;28;20398;-83
2023/09/25 07:06:59;;;;;;;11.30;3.08;;;16.80;70.00;;;;;;5051099;28;20119;-84
2023/09/25 07:09:25;;;;;;;4.57;2.72;;;16.80;70.30;;;;;;5067401;28;20055;-84
2023/09/25 07:11:50;;;;;;;6.50;2.63;;;16.80;70.60;;;;;;5047143;28;20032;-84
2023/09/25 07:14:16;;;;;;;4.97;2.70;;;16.80;70.90;;;;;;5044177;28;20013;-83
2023/09/25 07:16:42;;;;;;;6.13;3.22;;;16.80;71.20;;;;;;5050704;28;20024;-83
2023/09/25 07:19:08;;;;;;;5.05;2.85;;;16.80;71.50;;;;;;5049557;28;20073;-85
2023/09/25 07:21:35;;;;;;;3.38;2.55;;;16.80;71.80;;;;;;5043367;28;20180;-85
2023/09/25 07:24:01;;;;;;;7.72;3.50;;;16.80;71.90;;;;;;5067327;28;20012;-85
2023/09/25 07:26:27;;;;;;;4.13;2.20;;;16.90;72.20;;;;;;5065499;28;20017;-85
2023/09/25 07:28:52;;;;;;;5.00;2.78;;;16.90;72.30;;;;;;5049389;28;20036;-86
2023/09/25 07:31:19;;;;;;;3.97;2.20;;;16.90;72.40;;;;;;5047605;28;20020;-83
2023/09/25 07:33:45;;;;;;;5.38;2.97;;;16.90;72.60;;;;;;5052191;28;20027;-84
2023/09/25 07:36:11;;;;;;;5.22;3.10;;;16.80;72.90;;;;;;5050745;28;20112;-85
2023/09/25 07:38:37;;;;;;;6.40;2.75;;;16.80;72.70;;;;;;5045983;28;20029;-85
2023/09/25 07:41:02;;;;;;;5.05;2.58;;;16.90;73.00;;;;;;5049512;28;20027;-85
2023/09/25 07:43:29;;;;;;;4.07;2.70;;;16.80;73.20;;;;;;5054768;28;20074;-85
2023/09/25 07:45:55;;;;;;;6.45;3.13;;;16.90;73.30;;;;;;5044515;28;20037;-84
2023/09/25 07:48:21;;;;;;;4.60;2.83;;;16.90;73.40;;;;;;5061095;28;20032;-84
2023/09/25 07:50:47;;;;;;;5.57;2.78;;;16.90;73.40;;;;;;5047352;28;20023;-84
2023/09/25 07:53:13;;;;;;;5.95;2.75;;;16.90;73.30;;;;;;5063657;28;20104;-84
2023/09/25 07:55:40;;;;;;;5.65;2.60;;;16.90;74.30;;;;;;5043390;28;20025;-85
2023/09/25 07:58:06;;;;;;;6.85;2.70;;;16.90;73.60;;;;;;5063348;28;20013;-84
2023/09/25 08:00:44;;;;;;;5.32;2.63;;;16.90;73.70;;;;;;5046241;28;20461;-85
2023/09/25 08:03:14;;;;;;;2.83;2.13;;;17.00;74.10;;;;;;5047256;28;20433;-85
2023/09/25 08:05:40;;;;;;;12.27;2.90;;;17.00;74.20;;;;;;5051167;28;20025;-86
2023/09/25 08:08:06;;;;;;;5.95;2.05;;;17.00;74.30;;;;;;5047344;28;20384;-85
2023/09/25 08:10:33;;;;;;;7.65;2.65;;;17.00;74.50;;;;;;5041549;28;20027;-85
2023/09/25 08:12:59;;;;;;;6.78;3.00;;;17.00;74.50;;;;;;5052635;28;20056;-86
2023/09/25 08:15:25;;;;;;;3.45;2.20;;;17.00;74.50;;;;;;5046509;28;20035;-85
2023/09/25 08:17:50;;;;;;;5.10;2.50;;;17.00;75.60;;;;;;5043646;28;20024;-85
2023/09/25 08:20:22;;;;;;;4.60;2.38;;;17.00;74.70;;;;;;5053019;28;20017;-84
2023/09/25 08:22:52;;;;;;;4.22;2.80;;;17.00;74.90;;;;;;5044321;28;20036;-85
2023/09/25 08:25:18;;;;;;;4.28;2.40;;;17.00;74.80;;;;;;5052855;28;20016;-85
2023/09/25 08:27:45;;;;;;;5.13;2.30;;;17.00;74.90;;;;;;5047746;28;20056;-84
2023/09/25 08:30:12;;;;;;;11.90;3.05;;;17.00;75.00;;;;;;5043945;28;20022;-85
2023/09/25 08:32:37;;;;;;;5.38;3.22;;;17.00;75.50;;;;;;5043100;28;20028;-85
2023/09/25 08:35:04;;;;;;;4.68;2.80;;;17.00;75.60;;;;;;5047291;28;20017;-91
2023/09/25 08:37:29;;;;;;;4.75;2.55;;;17.00;75.60;;;;;;5047818;28;20021;-84
2023/09/25 08:39:56;;;;;;;6.75;3.05;;;17.00;75.70;;;;;;5063766;28;20040;-88
2023/09/25 08:42:25;;;;;;;8.05;2.65;;;17.00;75.70;;;;;;5066005;28;20024;-85
2023/09/25 08:44:53;;;;;;;5.80;3.20;;;17.00;75.90;;;;;;5044467;28;20032;-87
2023/09/25 08:47:19;;;;;;;7.10;2.90;;;17.00;76.00;;;;;;5048310;28;20025;-88
2023/09/25 08:49:49;;;;;;;5.07;2.72;;;17.00;76.70;;;;;;5047353;28;20466;-89
2023/09/25 08:52:16;;;;;;;4.40;2.72;;;17.00;75.80;;;;;;5061821;28;20110;-87
2023/09/25 08:54:41;;;;;;;4.95;2.35;;;17.00;75.80;;;;;;5044155;28;20021;-87
2023/09/25 08:57:07;;;;;;;6.32;3.53;;;17.10;75.80;;;;;;5049723;28;20016;-88
2023/09/25 08:59:40;;;;;;;6.30;3.03;;;17.10;75.80;;;;;;5052920;28;20449;-88
2023/09/25 09:02:09;;;;;;;5.25;2.90;;;17.10;76.10;;;;;;5072543;28;20036;-88
2023/09/25 09:04:38;;;;;;;4.80;2.80;;;17.10;76.20;;;;;;5052459;28;20025;-88
2023/09/25 09:07:08;;;;;;;5.72;2.30;;;17.10;76.30;;;;;;5065398;28;20094;-87
2023/09/25 09:09:34;;;;;;;6.68;2.70;;;17.10;76.30;;;;;;5064811;28;20024;-85
2023/09/25 09:12:01;;;;;;;5.05;2.85;;;17.10;76.30;;;;;;5050581;28;20124;-85
2023/09/25 09:14:41;;;;;;;7.82;3.08;;;17.10;76.40;;;;;;5055975;28;20072;-86
2023/09/25 09:17:09;;;;;;;3.47;2.38;;;17.10;76.10;;;;;;5066807;28;20055;-86
2023/09/25 09:19:44;;;;;;;6.25;2.80;;;17.10;76.80;;;;;;5047269;28;20543;-86
2023/09/25 09:22:09;;;;;;;4.50;2.33;;;17.10;76.00;;;;;;5046075;28;20082;-87
2023/09/25 09:24:39;;;;;;;5.05;2.30;;;17.10;76.00;;;;;;5067460;28;20020;-85
2023/09/25 09:27:09;;;;;;;;;;;17.10;76.00;;;;;;5051686;28;20037;-84
2023/09/25 09:29:39;;;;;;;5.20;2.63;;;17.10;76.10;;;;;;5050604;28;19908;-87
2023/09/25 09:32:06;;;;;;;5.05;2.75;;;17.10;76.30;;;;;;5051544;28;20035;-86
2023/09/25 09:34:33;;;;;;;8.05;2.70;;;17.10;76.40;;;;;;5053373;28;20016;-86
2023/09/25 09:36:59;;;;;;;5.75;2.60;;;17.10;76.60;;;;;;5071664;28;20074;-86
2023/09/25 09:39:37;;;;;;;5.10;2.75;;;17.10;77.60;;;;;;5065191;28;20025;-86
2023/09/25 09:42:08;;;;;;;5.90;2.58;;;17.10;77.00;;;;;;5048401;28;20021;-87
2023/09/25 09:44:35;;;;;;;8.95;2.95;;;17.10;76.80;;;;;;5049460;28;20497;-84
2023/09/25 09:47:05;;;;;;;4.72;2.60;;;17.20;77.00;;;;;;5068849;28;20457;-86
2023/09/25 09:49:35;;;;;;;4.47;2.10;;;17.20;76.70;;;;;;5070043;28;20010;-85
2023/09/25 09:52:02;;;;;;;5.75;2.70;;;17.20;76.60;;;;;;5049306;28;20029;-87
2023/09/25 09:54:31;;;;;;;3.95;2.13;;;17.20;76.60;;;;;;5051078;28;20378;-85
2023/09/25 09:57:00;;;;;;;3.08;2.10;;;17.20;76.70;;;;;;5048332;28;20041;-84
2023/09/25 09:59:26;;;;;;;4.90;2.60;;;17.20;76.80;;;;;;5067857;28;20032;-88
2023/09/25 10:01:52;;;;;;;6.55;1.92;;;17.30;76.80;;;;;;5047283;28;20033;-86
2023/09/25 10:04:18;;;;;;;2.65;1.95;;;17.30;76.90;;;;;;5052293;28;20028;-86
2023/09/25 10:07:00;;;;;;;6.28;2.67;;;17.30;77.10;;;;;;5046823;28;20443;-86
2023/09/25 10:09:27;;;;;;;3.95;2.22;;;17.30;77.10;;;;;;5048375;28;20025;-87
2023/09/25 10:11:54;;;;;;;6.72;2.30;;;17.30;77.10;;;;;;5059572;28;20095;-87
2023/09/25 10:14:23;;;;;;;5.28;2.60;;;17.30;77.10;;;;;;5051086;28;20048;-87
2023/09/25 10:16:59;;;;;;;4.55;2.15;;;17.30;77.10;;;;;;5063962;28;20102;-86
2023/09/25 10:19:37;;;;;;;7.07;1.92;;;17.30;77.00;;;;;;5045737;28;20021;-86
2023/09/25 10:22:20;;;;;;;4.07;2.17;;;17.30;76.90;;;;;;5043208;28;20041;-86
2023/09/25 10:24:48;;;;;;;3.78;2.08;;;17.30;76.90;;;;;;5041311;28;20429;-87
2023/09/25 10:27:17;;;;;;;4.15;1.88;;;17.30;76.90;;;;;;5067372;28;20061;-87
2023/09/25 10:30:17;;;;;;;3.67;1.50;;;17.30;76.80;;;;;;5049996;28;20393;-87
2023/09/25 10:32:50;;;;;;;4.18;1.80;;;17.40;77.40;;;;;;4966388;28;20061;-86
2023/09/25 10:35:42;;;;;;;2.55;1.35;;;17.40;76.60;;;;;;4969836;28;20395;-87
2023/09/25 10:38:21;;;;;;;2.13;1.60;;;17.40;76.20;;;;;;4950456;28;20033;-86
2023/09/25 10:40:52;;;;;;;3.08;1.95;;;17.40;76.00;;;;;;4971842;28;20023;-84
2023/09/25 10:43:19;;;;;;;7.75;1.90;;;17.40;75.80;;;;;;4953546;28;20046;-87
2023/09/25 10:45:45;;;;;;;3.42;2.00;;;17.40;75.80;;;;;;4954218;28;20082;-86
2023/09/25 10:48:12;;;;;;;2.88;2.00;;;17.40;75.80;;;;;;4969941;28;20062;-86
2023/09/25 10:50:40;;;;;;;7.82;1.85;;;17.40;75.90;;;;;;4967797;28;20055;-87
2023/09/25 10:53:08;;;;;;;2.22;1.67;;;17.40;75.80;;;;;;4971516;28;20085;-88
2023/09/25 10:55:35;;;;;;;4.85;2.13;;;17.40;75.80;;;;;;4953890;28;20062;-87
2023/09/25 10:58:02;;;;;;;4.55;1.65;;;17.40;75.80;;;;;;4970817;28;20029;-87
2023/09/25 11:00:28;;;;;;;3.58;1.98;;;17.40;75.90;;;;;;4971697;28;20015;-88
2023/09/25 11:02:54;;;;;;;3.92;1.40;;;17.40;76.00;;;;;;4955083;28;20116;-87
2023/09/25 11:05:21;;;;;;;6.80;1.60;;;17.50;76.30;;;;;;4955045;28;20058;-86
2023/09/25 11:07:47;;;;;;;3.95;1.70;;;17.50;76.30;;;;;;4998095;28;20073;-86
2023/09/25 11:10:13;;;;;;;2.38;1.70;;;17.50;76.40;;;;;;5047535;28;20032;-87
2023/09/25 11:12:40;;;;;;;3.63;1.75;;;17.50;76.60;;;;;;5046487;28;20107;-87
2023/09/25 11:15:11;;;;;;;2.97;1.73;;;17.50;76.40;;;;;;5067089;28;20021;-86
2023/09/25 11:17:37;;;;;;;;;;;17.50;76.40;;;;;;5046138;28;20039;-86
2023/09/25 11:20:18;;;;;;;4.40;2.03;;;17.60;76.40;;;;;;5047135;28;19911;-89
2023/09/25 11:22:46;;;;;;;4.97;1.80;;;17.60;76.40;;;;;;5050355;28;20381;-86
2023/09/25 11:25:15;;;;;;;2.65;1.80;;;17.60;76.40;;;;;;5045715;28;20068;-87
2023/09/25 11:27:52;;;;;;;4.32;1.85;;;17.60;76.50;;;;;;5047626;28;20020;-85
2023/09/25 11:30:19;;;;;;;3.05;1.88;;;17.70;76.50;;;;;;5047421;28;20032;-93
2023/09/25 11:32:45;;;;;;;2.30;1.65;;;17.60;76.40;;;;;;5052836;28;20021;-84
2023/09/25 11:35:12;;;;;;;4.30;1.90;;;17.60;76.30;;;;;;5054528;28;20090;-82
2023/09/25 11:37:59;;;;;;;7.75;1.85;;;17.60;76.30;;;;;;5065614;28;20107;-85
2023/09/25 11:40:28;;;;;;;2.75;1.58;;;17.60;77.10;;;;;;5048140;28;20043;-85
2023/09/25 11:42:57;;;;;;;5.35;2.42;;;17.70;76.50;;;;;;5044216;28;20032;-85
2023/09/25 11:45:23;;;;;;;3.40;1.88;;;17.70;76.60;;;;;;5047176;28;20355;-85
2023/09/25 11:47:49;;;;;;;6.30;1.80;;;17.70;76.60;;;;;;5049572;28;20560;-84
2023/09/25 11:50:16;;;;;;;2.95;1.75;;;17.70;76.60;;;;;;5062035;28;20124;-84
2023/09/25 11:52:46;;;;;;;2.78;1.63;;;17.80;77.00;;;;;;5064502;28;20058;-83
2023/09/25 11:55:14;;;;;;;1.40;1.30;;;17.80;76.80;;;;;;5044218;28;20124;-83
2023/09/25 11:57:44;;;;;;;3.70;1.60;;;17.80;76.80;;;;;;5063296;28;20017;-82
2023/09/25 12:00:11;;;;;;;3.07;1.97;;;17.80;76.50;;;;;;5057491;28;20049;-83
2023/09/25 12:02:37;;;;;;;2.75;1.67;;;17.80;76.00;;;;;;5042786;28;20346;-84
2023/09/25 12:05:04;;;;;;;2.65;1.80;;;17.80;76.10;;;;;;5061295;28;20100;-83
2023/09/25 12:07:36;;;;;;;8.50;2.28;;;17.80;76.10;;;;;;5042798;28;20034;-84
2023/09/25 12:10:08;;;;;;;3.35;1.70;;;17.80;76.10;;;;;;5045550;28;20021;-82
2023/09/25 12:12:37;;;;;;;7.60;1.88;;;17.70;76.00;;;;;;5044105;28;20028;-83
2023/09/25 12:15:05;;;;;;;3.83;2.03;;;17.80;76.10;;;;;;5046457;28;20033;-83
2023/09/25 12:17:31;;;;;;;3.40;1.67;;;17.80;75.80;;;;;;5044439;28;20082;-83
2023/09/25 12:20:00;;;;;;;3.38;1.58;;;17.80;75.50;;;;;;5043673;28;20464;-83
2023/09/25 12:22:25;;;;;;;7.75;2.33;;;17.80;75.90;;;;;;5038130;28;20024;-83
2023/09/25 12:24:51;;;;;;;4.88;1.75;;;17.90;75.50;;;;;;5049116;28;20028;-83
2023/09/25 12:27:17;;;;;;;2.92;1.70;;;17.80;75.60;;;;;;5040921;28;20029;-83
2023/09/25 12:29:45;;;;;;;4.07;1.35;;;17.90;76.00;;;;;;5043958;28;20021;-83
2023/09/25 12:32:11;;;;;;;3.85;2.25;;;17.90;76.20;;;;;;5047925;28;20086;-83
2023/09/25 12:34:38;;;;;;;5.38;2.05;;;17.90;76.40;;;;;;5049078;28;20020;-83
2023/09/25 12:37:04;;;;;;;4.25;1.80;;;17.90;76.40;;;;;;5048942;28;20033;-84
2023/09/25 12:39:36;;;;;;;3.65;2.17;;;17.90;76.30;;;;;;5046611;28;20021;-83
2023/09/25 12:42:02;;;;;;;2.53;2.00;;;18.00;76.50;;;;;;5051561;28;20016;-84
2023/09/25 12:44:27;;;;;;;3.35;2.22;;;18.00;76.60;;;;;;5051483;28;20029;-82
2023/09/25 12:46:53;;;;;;;3.10;2.13;;;18.00;76.50;;;;;;5051205;28;20043;-83
2023/09/25 12:49:19;;;;;;;2.45;2.15;;;18.00;76.50;;;;;;5043163;28;20016;-82
2023/09/25 12:51:46;;;;;;;2.75;2.22;;;18.00;76.80;;;;;;5068053;28;20009;-82
2023/09/25 12:54:12;;;;;;;2.47;1.92;;;18.00;76.60;;;;;;5049866;28;20043;-83
2023/09/25 12:56:38;;;;;;;3.88;1.67;;;18.00;76.60;;;;;;5047764;28;20492;-83
2023/09/25 12:59:04;;;;;;;2.67;1.75;;;18.00;76.70;;;;;;5050054;28;20031;-84
2023/09/25 13:01:29;;;;;;;3.53;1.73;;;18.00;76.90;;;;;;5067102;28;20020;-83
2023/09/25 13:03:55;;;;;;;5.13;2.58;;;18.00;77.00;;;;;;5049247;28;20086;-83
2023/09/25 13:06:21;;;;;;;9.23;2.10;;;18.00;76.90;;;;;;5049103;28;20358;-83
2023/09/25 13:08:46;;;;;;;3.08;1.95;;;18.00;76.90;;;;;;5066052;28;20355;-83
2023/09/25 13:11:12;;;;;;;3.95;2.20;;;18.10;76.80;;;;;;5046353;28;20020;-83
2023/09/25 13:13:38;;;;;;;2.65;2.30;;;18.00;76.80;;;;;;5064744;28;20020;-84
2023/09/25 13:16:04;;;;;;;6.50;2.65;;;18.10;76.90;;;;;;5047191;28;20389;-83
2023/09/25 13:18:29;;;;;;;2.88;1.80;;;18.00;76.80;;;;;;5050176;28;20029;-83
2023/09/25 13:20:55;;;;;;;4.18;2.05;;;18.00;76.80;;;;;;5045562;28;20162;-83
2023/09/25 13:23:22;;;;;;;3.33;1.65;;;18.00;77.00;;;;;;5048687;28;20028;-84
2023/09/25 13:25:48;;;;;;;2.72;1.15;;;18.00;77.00;;;;;;5049860;28;20035;-84
2023/09/25 13:28:13;;;;;;;4.22;2.00;;;18.00;77.10;;;;;;5044340;28;20025;-83
2023/09/25 13:30:39;;;;;;;6.68;2.03;;;18.00;77.30;;;;;;5049930;28;20044;-83
2023/09/25 13:33:04;;;;;;;4.22;2.13;;;18.10;77.50;;;;;;5051999;28;20016;-82
2023/09/25 13:35:30;;;;;;;4.50;2.33;;;18.10;77.20;;;;;;5048598;28;20016;-83
2023/09/25 13:37:56;;;;;;;3.33;2.00;;;18.10;77.10;;;;;;5047038;28;20016;-83
2023/09/25 13:40:21;;;;;;;2.70;1.65;;;18.10;77.10;;;;;;5043929;28;20048;-83
2023/09/25 13:42:47;;;;;;;4.38;1.90;;;18.10;77.20;;;;;;5048175;28;20021;-83
2023/09/25 13:45:14;;;;;;;3.55;2.03;;;18.10;77.30;;;;;;5046920;28;20377;-84
2023/09/25 13:47:42;;;;;;;3.17;2.00;;;18.00;77.40;;;;;;5050949;28;20029;-83
2023/09/25 13:50:10;;;;;;;3.60;2.17;;;18.10;77.60;;;;;;5051169;28;20017;-83
2023/09/25 13:52:37;;;;;;;3.83;2.05;;;18.10;77.50;;;;;;5059554;28;20013;-82
2023/09/25 13:55:03;;;;;;;3.00;2.10;;;18.10;77.50;;;;;;5050357;28;20017;-83
2023/09/25 13:57:29;;;;;;;2.13;1.63;;;18.10;77.60;;;;;;5046982;28;20417;-83
2023/09/25 13:59:54;;;;;;;3.83;2.20;;;18.10;77.60;;;;;;5049433;28;20025;-84
2023/09/25 14:02:22;;;;;;;3.88;2.25;;;18.10;77.60;;;;;;5043702;28;20028;-82
2023/09/25 14:04:48;;;;;;;6.50;2.03;;;18.10;77.70;;;;;;5065676;28;20020;-83
2023/09/25 14:07:13;;;;;;;2.83;1.90;;;18.00;77.60;;;;;;5047491;28;20573;-84
2023/09/25 14:09:40;;;;;;;3.67;2.00;;;18.10;77.60;;;;;;5064419;28;20048;-84
2023/09/25 14:12:06;;;;;;;3.33;1.98;;;18.10;77.90;;;;;;5065960;28;20103;-93
2023/09/25 14:14:43;;;;;;;3.65;2.03;;;18.10;77.70;;;;;;5057415;28;20159;-86
2023/09/25 14:17:08;;;;;;;2.95;1.92;;;18.00;77.60;;;;;;5047084;28;20036;-89
2023/09/25 14:19:35;;;;;;;4.38;1.92;;;18.00;77.90;;;;;;5054218;28;20561;-81
2023/09/25 14:22:07;;;;;;;5.05;2.22;;;18.00;77.60;;;;;;5056778;28;20033;-82
2023/09/25 14:24:36;;;;;;;4.22;2.33;;;18.00;77.70;;;;;;5047130;28;20458;-83
2023/09/25 14:27:02;;;;;;;3.15;1.92;;;18.00;77.70;;;;;;5031949;28;20025;-83
